createdAt,value
2022-10-29T00:00:46.632Z,246.27
2022-10-29T00:03:37.181Z,142.10
2022-10-29T00:06:26.440Z,173.00
2022-10-29T00:09:15.686Z,97.23
2022-10-29T00:12:05.256Z,167.87
2022-10-29T00:14:55.948Z,130.87
2022-10-29T00:17:45.360Z,84.37
2022-10-29T00:20:34.442Z,89.17
2022-10-29T00:23:23.673Z,101.87
2022-10-29T00:26:13.264Z,140.10
2022-10-29T00:29:02.668Z,205.90
2022-10-29T00:31:53.597Z,154.60
2022-10-29T00:34:43.108Z,137.87
2022-10-29T00:37:32.245Z,99.10
2022-10-29T00:40:22.317Z,248.70
2022-10-29T00:43:15.235Z,80.80
2022-10-29T00:46:08.461Z,120.87
2022-10-29T00:49:00.337Z,261.57
2022-10-29T00:51:50.206Z,426.23
2022-10-29T00:54:43.507Z,150.63
2022-10-29T00:57:38.528Z,119.47
2022-10-29T01:00:27.972Z,115.57
2022-10-29T01:03:17.312Z,85.30
2022-10-29T01:06:09.790Z,196.37
2022-10-29T01:08:59.239Z,106.37
2022-10-29T01:12:01.372Z,119.57
2022-10-29T01:15:02.075Z,68.70
2022-10-29T01:18:06.952Z,67.33
2022-10-29T01:21:32.117Z,125.33
2022-10-29T01:24:58.877Z,162.83
2022-10-29T01:28:01.549Z,115.67
2022-10-29T01:31:16.853Z,158.57
2022-10-29T01:34:11.868Z,245.03
2022-10-29T01:37:05.358Z,90.80
2022-10-29T01:39:58.609Z,73.80
2022-10-29T01:42:52.732Z,72.57
2022-10-29T01:45:46.982Z,114.10
2022-10-29T01:48:41.411Z,129.77
2022-10-29T01:51:33.997Z,188.40
2022-10-29T01:54:23.260Z,153.80
2022-10-29T01:57:42.337Z,104.00
2022-10-29T02:00:39.435Z,76.30
2022-10-29T02:03:39.801Z,69.27
2022-10-29T02:06:38.450Z,110.57
2022-10-29T02:09:34.949Z,64.97
2022-10-29T02:15:18.245Z,62.83
2022-10-29T02:18:09.727Z,89.13
2022-10-29T02:21:00.486Z,97.83
2022-10-29T02:23:49.728Z,83.77
2022-10-29T02:26:38.944Z,84.70
2022-10-29T02:29:28.119Z,75.93
2022-10-29T02:32:17.362Z,111.60
2022-10-29T02:35:07.390Z,85.67
2022-10-29T02:37:58.075Z,111.53
2022-10-29T02:40:47.256Z,98.90
2022-10-29T02:43:36.360Z,59.87
2022-10-29T02:46:26.186Z,96.47
2022-10-29T02:49:15.306Z,84.33
2022-10-29T02:52:04.486Z,66.93
2022-10-29T02:54:55.004Z,79.63
2022-10-29T02:57:45.773Z,46.30
2022-10-29T03:00:34.884Z,65.57
2022-10-29T03:03:24.831Z,79.00
2022-10-29T03:06:18.336Z,74.87
2022-10-29T03:09:07.787Z,65.97
2022-10-29T03:11:58.462Z,61.53
2022-10-29T03:14:47.523Z,56.83
2022-10-29T03:17:36.865Z,67.83
2022-10-29T03:20:26.155Z,52.00
2022-10-29T03:23:15.569Z,54.03
2022-10-29T03:26:04.826Z,67.70
2022-10-29T03:28:56.742Z,71.47
2022-10-29T03:31:45.924Z,53.93
2022-10-29T03:34:35.066Z,66.03
2022-10-29T03:37:24.464Z,59.77
2022-10-29T03:40:13.689Z,60.07
2022-10-29T03:43:02.916Z,50.83
2022-10-29T03:45:54.027Z,66.97
2022-10-29T03:48:43.275Z,54.17
2022-10-29T03:51:32.497Z,43.90
2022-10-29T03:54:21.705Z,54.27
2022-10-29T03:57:10.825Z,64.37
2022-10-29T04:00:00.926Z,57.23
2022-10-29T04:02:51.609Z,51.33
2022-10-29T04:05:40.767Z,61.60
2022-10-29T04:08:30.836Z,61.70
2022-10-29T04:11:19.976Z,59.97
2022-10-29T04:14:09.494Z,61.33
2022-10-29T04:16:59.811Z,37.00
2022-10-29T04:19:50.542Z,59.57
2022-10-29T04:29:07.369Z,41.60
2022-10-29T04:31:56.534Z,45.20
2022-10-29T04:34:45.635Z,49.53
2022-10-29T04:37:36.337Z,49.83
2022-10-29T04:40:25.909Z,51.63
2022-10-29T04:43:15.174Z,46.13
2022-10-29T04:46:04.385Z,49.80
2022-10-29T04:48:53.970Z,52.10
2022-10-29T04:51:43.254Z,51.73
2022-10-29T04:54:33.859Z,38.53
2022-10-29T04:57:23.003Z,41.37
2022-10-29T05:00:17.849Z,59.90
2022-10-29T05:03:08.038Z,43.93
2022-10-29T05:05:57.186Z,38.63
2022-10-29T05:08:46.351Z,59.23
2022-10-29T05:11:36.933Z,45.13
2022-10-29T05:14:26.164Z,39.97
2022-10-29T05:17:15.445Z,65.83
2022-10-29T05:20:04.748Z,77.03
2022-10-29T05:23:01.482Z,37.07
2022-10-29T05:25:52.743Z,60.93
2022-10-29T05:28:43.599Z,36.83
2022-10-29T05:31:32.800Z,61.33
2022-10-29T05:34:22.242Z,46.63
2022-10-29T05:37:11.377Z,79.70
2022-10-29T05:40:00.883Z,86.00
2022-10-29T05:42:49.983Z,42.67
2022-10-29T05:45:41.260Z,45.67
2022-10-29T05:48:30.399Z,40.17
2022-10-29T05:51:19.666Z,45.07
2022-10-29T05:54:08.808Z,41.17
2022-10-29T05:56:59.840Z,41.97
2022-10-29T05:59:49.051Z,42.30
2022-10-29T06:02:39.735Z,42.27
2022-10-29T06:05:28.932Z,45.97
2022-10-29T06:08:18.599Z,60.97
2022-10-29T06:11:07.810Z,43.50
2022-10-29T06:13:57.251Z,40.37
2022-10-29T06:16:46.590Z,43.50
2022-10-29T06:19:37.731Z,46.17
2022-10-29T06:22:26.838Z,45.43
2022-10-29T06:25:16.120Z,38.10
2022-10-29T06:28:06.971Z,39.37
2022-10-29T06:30:56.113Z,39.77
2022-10-29T06:33:45.313Z,53.87
2022-10-29T06:36:36.012Z,44.23
2022-10-29T06:39:25.214Z,44.30
2022-10-29T06:42:14.294Z,38.10
2022-10-29T06:45:03.533Z,39.23
2022-10-29T06:47:53.284Z,47.30
2022-10-29T06:50:42.803Z,38.93
2022-10-29T06:53:33.595Z,30.90
2022-10-29T06:56:23.351Z,30.63
2022-10-29T06:59:12.529Z,29.73
2022-10-29T07:02:01.716Z,33.97
2022-10-29T07:04:51.189Z,29.13
2022-10-29T07:07:40.301Z,28.87
2022-10-29T07:10:32.702Z,29.10
2022-10-29T07:13:21.848Z,29.43
2022-10-29T07:16:11.039Z,26.83
2022-10-29T07:19:00.338Z,28.50
2022-10-29T07:21:49.739Z,28.67
2022-10-29T07:24:38.963Z,28.17
2022-10-29T07:27:29.881Z,24.53
2022-10-29T07:30:20.031Z,25.90
2022-10-29T07:33:09.262Z,26.00
2022-10-29T07:35:59.558Z,24.67
2022-10-29T07:38:49.079Z,25.23
2022-10-29T07:41:38.347Z,26.10
2022-10-29T07:44:28.929Z,23.17
2022-10-29T07:47:18.069Z,23.73
2022-10-29T07:50:08.130Z,30.07
2022-10-29T07:52:57.564Z,24.40
2022-10-29T07:55:53.178Z,22.13
2022-10-29T07:58:42.339Z,24.70
2022-10-29T08:01:34.170Z,20.90
2022-10-29T08:04:23.602Z,22.67
2022-10-29T08:07:12.814Z,29.67
2022-10-29T08:10:02.016Z,23.90
2022-10-29T08:12:52.106Z,23.07
2022-10-29T08:15:41.851Z,23.30
2022-10-29T08:18:32.726Z,25.33
2022-10-29T08:21:21.935Z,19.70
2022-10-29T08:24:12.045Z,18.73
2022-10-29T08:27:01.317Z,22.23
2022-10-29T08:29:50.499Z,19.47
2022-10-29T08:32:46.110Z,20.23
2022-10-29T08:35:36.750Z,14.60
2022-10-29T08:38:25.889Z,17.83
2022-10-29T08:41:36.540Z,18.90
2022-10-29T08:45:02.271Z,17.10
2022-10-29T08:48:10.729Z,15.63
2022-10-29T08:51:07.249Z,17.60
2022-10-29T08:57:15.374Z,15.90
2022-10-29T09:03:03.068Z,14.77
2022-10-29T09:06:00.022Z,16.30
2022-10-29T09:09:11.721Z,14.07
2022-10-29T09:12:15.529Z,21.07
2022-10-29T09:15:30.437Z,19.10
2022-10-29T09:18:46.384Z,17.37
2022-10-29T09:21:41.372Z,18.40
2022-10-29T09:24:41.689Z,16.53
2022-10-29T09:27:50.340Z,18.80
2022-10-29T09:30:54.378Z,17.57
2022-10-29T09:33:53.439Z,17.27
2022-10-29T09:36:46.438Z,18.70
2022-10-29T09:39:42.302Z,21.57
2022-10-29T09:42:38.545Z,20.07
2022-10-29T09:45:43.985Z,17.60
2022-10-29T09:48:38.377Z,17.87
2022-10-29T09:51:36.247Z,19.03
2022-10-29T09:54:26.748Z,20.03
2022-10-29T09:57:21.548Z,22.17
2022-10-29T10:00:20.278Z,20.80
2022-10-29T10:03:16.881Z,20.93
2022-10-29T10:06:08.477Z,22.23
2022-10-29T10:09:02.499Z,24.73
2022-10-29T10:11:54.689Z,22.80
2022-10-29T10:14:45.470Z,24.83
2022-10-29T10:17:57.148Z,23.90
2022-10-29T10:20:49.758Z,25.47
2022-10-29T10:23:47.522Z,22.37
2022-10-29T10:26:40.278Z,24.63
2022-10-29T10:29:29.933Z,21.33
2022-10-29T10:32:21.042Z,26.00
2022-10-29T10:35:29.098Z,26.30
2022-10-29T10:38:19.164Z,28.30
2022-10-29T10:41:10.940Z,23.77
2022-10-29T10:44:03.189Z,26.17
2022-10-29T10:46:54.840Z,23.23
2022-10-29T10:49:46.256Z,24.77
2022-10-29T10:52:35.578Z,23.87
2022-10-29T10:55:29.309Z,22.13
2022-10-29T10:58:25.490Z,25.40
2022-10-29T11:01:19.421Z,21.20
2022-10-29T11:04:17.698Z,23.20
2022-10-29T11:07:12.926Z,22.40
2022-10-29T11:10:06.249Z,20.90
2022-10-29T11:12:58.439Z,20.13
2022-10-29T11:15:53.685Z,22.70
2022-10-29T11:18:47.159Z,18.57
2022-10-29T11:21:42.049Z,16.70
2022-10-29T11:24:43.407Z,15.90
2022-10-29T11:27:41.094Z,16.27
2022-10-29T11:30:35.779Z,14.33
2022-10-29T11:33:33.468Z,20.97
2022-10-29T11:36:24.862Z,15.50
2022-10-29T11:39:20.940Z,14.27
2022-10-29T11:42:12.019Z,17.63
2022-10-29T11:45:01.746Z,11.07
2022-10-29T11:48:05.464Z,14.30
2022-10-29T11:51:00.990Z,12.60
2022-10-29T11:54:01.238Z,10.07
2022-10-29T11:56:57.488Z,9.33
2022-10-29T12:00:14.829Z,9.47
2022-10-29T12:03:24.826Z,9.90
2022-10-29T12:06:19.827Z,8.07
2022-10-29T12:09:29.988Z,9.83
2022-10-29T12:12:26.108Z,9.50
2022-10-29T12:15:24.440Z,10.20
2022-10-29T12:18:23.779Z,8.83
2022-10-29T12:21:23.008Z,10.27
2022-10-29T12:24:24.890Z,7.53
2022-10-29T12:27:20.417Z,8.10
2022-10-29T12:30:12.140Z,7.67
2022-10-29T12:33:11.879Z,6.43
2022-10-29T12:36:10.287Z,7.27
2022-10-29T12:39:01.292Z,9.13
2022-10-29T12:41:53.092Z,8.60
2022-10-29T12:44:48.423Z,8.47
2022-10-29T12:47:45.166Z,7.67
2022-10-29T12:50:46.377Z,7.83
2022-10-29T12:53:43.599Z,7.37
2022-10-29T12:56:34.009Z,7.23
2022-10-29T12:59:33.349Z,7.77
2022-10-29T13:02:46.605Z,9.13
2022-10-29T13:05:43.142Z,6.20
2022-10-29T13:08:38.385Z,8.93
2022-10-29T13:11:44.979Z,8.10
2022-10-29T13:14:41.978Z,6.90
2022-10-29T13:17:35.486Z,7.10
2022-10-29T13:20:28.315Z,6.17
2022-10-29T13:23:35.430Z,7.23
2022-10-29T13:27:04.200Z,6.17
2022-10-29T13:30:20.027Z,7.13
2022-10-29T13:33:44.702Z,6.57
2022-10-29T13:36:40.121Z,14.90
2022-10-29T13:39:30.798Z,8.90
2022-10-29T13:42:20.238Z,6.97
2022-10-29T13:45:13.618Z,6.33
2022-10-29T13:48:06.639Z,5.67
2022-10-29T13:50:58.405Z,7.40
2022-10-29T13:53:54.288Z,6.77
2022-10-29T13:56:50.479Z,7.10
2022-10-29T13:59:44.188Z,5.77
2022-10-29T14:02:48.136Z,9.60
2022-10-29T14:05:43.868Z,5.33
2022-10-29T14:08:42.109Z,5.90
2022-10-29T14:11:36.959Z,9.07
2022-10-29T14:14:32.747Z,5.57
2022-10-29T14:17:22.167Z,5.37
2022-10-29T14:20:23.677Z,8.07
2022-10-29T14:23:13.277Z,5.53
2022-10-29T14:26:04.288Z,7.33
2022-10-29T14:28:54.157Z,4.13
2022-10-29T14:31:44.800Z,6.73
2022-10-29T14:34:34.076Z,5.37
2022-10-29T14:37:30.080Z,5.33
2022-10-29T14:40:22.951Z,8.17
2022-10-29T14:43:24.446Z,5.87
2022-10-29T14:46:24.195Z,7.90
2022-10-29T14:49:21.006Z,8.57
2022-10-29T14:52:23.758Z,4.37
2022-10-29T14:55:19.510Z,9.43
2022-10-29T14:58:17.599Z,6.40
2022-10-29T15:01:10.456Z,7.70
2022-10-29T15:04:02.256Z,5.97
2022-10-29T15:06:52.947Z,9.40
2022-10-29T15:09:42.270Z,7.93
2022-10-29T15:12:37.131Z,7.17
2022-10-29T15:15:29.193Z,8.47
2022-10-29T15:18:21.479Z,7.63
2022-10-29T15:21:10.800Z,6.97
2022-10-29T15:24:06.855Z,7.70
2022-10-29T15:26:58.923Z,8.53
2022-10-29T15:29:50.207Z,10.60
2022-10-29T15:32:39.370Z,6.77
2022-10-29T15:35:29.056Z,7.63
2022-10-29T15:38:56.929Z,7.23
2022-10-29T15:41:50.517Z,11.33
2022-10-29T15:44:41.077Z,7.33
2022-10-29T15:47:30.630Z,7.83
2022-10-29T15:50:22.638Z,10.20
2022-10-29T15:53:15.701Z,7.67
2022-10-29T15:56:05.529Z,9.00
2022-10-29T15:58:57.094Z,8.70
2022-10-29T16:01:46.421Z,7.87
2022-10-29T16:04:35.647Z,9.27
2022-10-29T16:07:24.811Z,11.60
2022-10-29T16:10:19.351Z,9.43
2022-10-29T16:13:12.342Z,10.53
2022-10-29T16:16:03.241Z,10.17
2022-10-29T16:18:52.984Z,9.03
2022-10-29T16:21:42.522Z,11.87
2022-10-29T16:24:31.670Z,9.27
2022-10-29T16:27:20.872Z,6.93
2022-10-29T16:30:11.990Z,8.93
2022-10-29T16:33:03.176Z,9.23
2022-10-29T16:35:52.577Z,7.67
2022-10-29T16:38:41.857Z,7.40
2022-10-29T16:41:38.102Z,16.50
2022-10-29T16:44:27.217Z,9.57
2022-10-29T16:47:16.411Z,8.97
2022-10-29T16:50:07.828Z,7.63
2022-10-29T16:53:00.564Z,10.40
2022-10-29T16:55:50.129Z,9.47
2022-10-29T16:58:39.352Z,9.43
2022-10-29T17:01:28.516Z,7.50
2022-10-29T17:04:18.211Z,8.13
2022-10-29T17:07:09.201Z,10.17
2022-10-29T17:09:58.438Z,9.80
2022-10-29T17:12:47.753Z,7.40
2022-10-29T17:15:39.985Z,8.73
2022-10-29T17:18:29.475Z,6.87
2022-10-29T17:21:19.212Z,9.57
2022-10-29T17:24:10.501Z,11.20
2022-10-29T17:27:00.329Z,9.03
2022-10-29T17:29:49.442Z,9.93
2022-10-29T17:32:39.423Z,11.00
2022-10-29T17:35:28.831Z,9.60
2022-10-29T17:38:17.973Z,6.40
2022-10-29T17:41:09.166Z,5.80
2022-10-29T17:43:58.348Z,11.73
2022-10-29T17:46:47.683Z,10.13
2022-10-29T17:49:36.929Z,6.37
2022-10-29T17:52:26.639Z,11.10
2022-10-29T17:55:16.057Z,6.97
2022-10-29T17:58:15.467Z,6.77
2022-10-29T18:01:08.961Z,5.57
2022-10-29T18:04:03.187Z,6.93
2022-10-29T18:06:52.439Z,6.57
2022-10-29T18:09:41.650Z,8.50
2022-10-29T18:12:30.886Z,6.63
2022-10-29T18:15:22.639Z,7.87
2022-10-29T18:18:12.652Z,8.00
2022-10-29T18:21:01.891Z,7.87
2022-10-29T18:23:51.284Z,8.77
2022-10-29T18:26:41.023Z,8.17
2022-10-29T18:29:30.241Z,7.07
2022-10-29T18:32:21.448Z,7.43
2022-10-29T18:35:11.957Z,7.43
2022-10-29T18:38:01.722Z,8.50
2022-10-29T18:40:56.105Z,6.57
2022-10-29T18:43:46.035Z,8.40
2022-10-29T18:46:35.879Z,12.37
2022-10-29T18:49:27.957Z,5.13
2022-10-29T18:52:17.626Z,8.73
2022-10-29T18:55:07.871Z,5.93
2022-10-29T18:57:57.133Z,8.30
2022-10-29T19:00:47.159Z,7.13
2022-10-29T19:03:36.843Z,6.93
2022-10-29T19:06:29.641Z,7.03
2022-10-29T19:09:18.809Z,8.33
2022-10-29T19:12:08.611Z,5.67
2022-10-29T19:14:58.565Z,5.90
2022-10-29T19:17:50.764Z,6.23
2022-10-29T19:20:40.332Z,6.40
2022-10-29T19:23:31.030Z,9.90
2022-10-29T19:26:20.959Z,9.57
2022-10-29T19:29:11.191Z,7.53
2022-10-29T19:32:00.641Z,8.30
2022-10-29T19:34:50.773Z,8.07
2022-10-29T19:37:40.405Z,12.33
2022-10-29T19:40:32.235Z,9.53
2022-10-29T19:43:21.399Z,6.90
2022-10-29T19:46:13.377Z,8.13
2022-10-29T19:49:03.016Z,9.77
2022-10-29T19:51:52.644Z,6.83
2022-10-29T19:54:41.939Z,7.87
2022-10-29T19:57:33.182Z,8.17
2022-10-29T20:00:22.948Z,8.40
2022-10-29T20:03:14.086Z,9.10
2022-10-29T20:06:03.643Z,7.33
2022-10-29T20:08:53.103Z,8.13
2022-10-29T20:11:43.278Z,6.30
2022-10-29T20:14:36.412Z,7.87
2022-10-29T20:17:25.674Z,8.63
2022-10-29T20:20:17.310Z,7.10
2022-10-29T20:23:06.703Z,6.53
2022-10-29T20:25:55.780Z,8.67
2022-10-29T20:28:45.061Z,6.40
2022-10-29T20:31:40.966Z,7.63
2022-10-29T20:34:30.465Z,7.87
2022-10-29T20:37:20.231Z,8.07
2022-10-29T20:40:12.384Z,9.00
2022-10-29T20:43:02.072Z,8.50
2022-10-29T20:45:51.419Z,5.60
2022-10-29T20:48:44.499Z,8.67
2022-10-29T20:51:34.255Z,8.40
2022-10-29T20:54:23.929Z,10.23
2022-10-29T20:57:13.118Z,8.60
2022-10-29T21:00:02.519Z,6.43
2022-10-29T21:02:51.601Z,8.20
2022-10-29T21:05:42.422Z,6.33
2022-10-29T21:08:31.815Z,6.93
2022-10-29T21:11:22.782Z,6.87
2022-10-29T21:14:11.991Z,5.67
2022-10-29T21:17:01.370Z,7.43
2022-10-29T21:19:51.025Z,7.63
2022-10-29T21:22:42.018Z,8.03
2022-10-29T21:25:31.138Z,5.43
2022-10-29T21:28:20.575Z,8.80
2022-10-29T21:31:10.155Z,8.03
2022-10-29T21:33:59.326Z,5.37
2022-10-29T21:36:48.447Z,5.93
2022-10-29T21:39:39.196Z,7.37
2022-10-29T21:42:28.349Z,6.93
2022-10-29T21:45:17.719Z,3.13
2022-10-29T21:48:08.080Z,5.87
2022-10-29T21:51:08.317Z,6.67
2022-10-29T21:53:57.515Z,7.70
2022-10-29T21:56:48.188Z,6.10
2022-10-29T21:59:37.769Z,5.20
2022-10-29T22:02:27.340Z,5.00
2022-10-29T22:05:16.852Z,6.53
2022-10-29T22:08:06.201Z,6.60
2022-10-29T22:10:58.937Z,5.33
2022-10-29T22:13:49.436Z,5.00
2022-10-29T22:16:39.143Z,6.87
2022-10-29T22:19:28.338Z,3.47
2022-10-29T22:22:17.566Z,5.63
2022-10-29T22:25:07.639Z,5.37
2022-10-29T22:27:56.888Z,7.50
2022-10-29T22:30:47.596Z,7.27
2022-10-29T22:33:40.953Z,7.60
2022-10-29T22:36:32.116Z,8.47
2022-10-29T22:39:21.207Z,8.20
2022-10-29T22:42:10.388Z,6.70
2022-10-29T22:44:59.556Z,7.50
2022-10-29T22:47:50.147Z,4.83
2022-10-29T22:50:39.233Z,7.00
2022-10-29T22:53:28.620Z,7.67
2022-10-29T22:56:19.126Z,6.57
2022-10-29T22:59:09.033Z,8.03
2022-10-29T23:01:58.221Z,7.23
2022-10-29T23:04:49.086Z,4.83
2022-10-29T23:07:38.178Z,9.47
2022-10-29T23:10:27.443Z,7.57
2022-10-29T23:13:16.589Z,7.80
2022-10-29T23:16:06.486Z,4.10
2022-10-29T23:18:57.266Z,6.90
2022-10-29T23:21:47.863Z,5.23
2022-10-29T23:24:36.962Z,8.33
2022-10-29T23:27:26.167Z,8.43
2022-10-29T23:30:15.767Z,8.50
2022-10-29T23:33:04.947Z,7.83
2022-10-29T23:35:54.290Z,6.37
2022-10-29T23:38:45.051Z,6.70
2022-10-29T23:41:34.356Z,7.63
2022-10-29T23:44:25.466Z,8.17
2022-10-29T23:47:14.618Z,7.30
2022-10-29T23:50:03.786Z,7.23
2022-10-29T23:52:52.990Z,8.00
2022-10-29T23:55:43.807Z,4.47
2022-10-29T23:58:33.247Z,11.00
